sensor_id;sensor_type;location;lat;lon;timestamp;temperature;humidity
33811;DHT22;20119;48.334;16.206;2023-04-15T00:01:01;5.10;99.90
33811;DHT22;20119;48.334;16.206;2023-04-15T00:03:29;5.10;99.90
33811;DHT22;20119;48.334;16.206;2023-04-15T00:05:57;5.10;99.90
33811;DHT22;20119;48.334;16.206;2023-04-15T00:08:26;5.10;99.90
33811;DHT22;20119;48.334;16.206;2023-04-15T00:10:55;5.10;99.90
33811;DHT22;20119;48.334;16.206;2023-04-15T00:13:24;5.20;99.90
33811;DHT22;20119;48.334;16.206;2023-04-15T00:15:52;5.20;99.90
33811;DHT22;20119;48.334;16.206;2023-04-15T00:18:19;5.30;99.90
33811;DHT22;20119;48.334;16.206;2023-04-15T00:20:47;5.30;99.90
33811;DHT22;20119;48.334;16.206;2023-04-15T00:23:16;5.30;99.90
33811;DHT22;20119;48.334;16.206;2023-04-15T00:25:43;5.30;99.90
33811;DHT22;20119;48.334;16.206;2023-04-15T00:28:12;5.20;99.90
33811;DHT22;20119;48.334;16.206;2023-04-15T00:30:39;5.20;99.90
33811;DHT22;20119;48.334;16.206;2023-04-15T00:33:08;5.20;99.90
33811;DHT22;20119;48.334;16.206;2023-04-15T00:35:35;5.10;99.90
33811;DHT22;20119;48.334;16.206;2023-04-15T00:38:04;5.10;99.90
33811;DHT22;20119;48.334;16.206;2023-04-15T00:40:32;5.00;99.90
33811;DHT22;20119;48.334;16.206;2023-04-15T00:43:00;5.00;99.90
33811;DHT22;20119;48.334;16.206;2023-04-15T00:45:30;5.00;99.90
33811;DHT22;20119;48.334;16.206;2023-04-15T00:47:58;5.00;99.90
33811;DHT22;20119;48.334;16.206;2023-04-15T00:50:26;5.00;99.90
33811;DHT22;20119;48.334;16.206;2023-04-15T00:52:54;5.00;99.90
33811;DHT22;20119;48.334;16.206;2023-04-15T00:55:22;5.00;99.90
33811;DHT22;20119;48.334;16.206;2023-04-15T00:57:50;5.00;99.90
33811;DHT22;20119;48.334;16.206;2023-04-15T01:00:20;5.00;99.90
33811;DHT22;20119;48.334;16.206;2023-04-15T01:02:50;5.00;99.90
33811;DHT22;20119;48.334;16.206;2023-04-15T01:05:18;5.00;99.90
33811;DHT22;20119;48.334;16.206;2023-04-15T01:07:47;5.00;99.90
33811;DHT22;20119;48.334;16.206;2023-04-15T01:10:14;5.00;99.90
33811;DHT22;20119;48.334;16.206;2023-04-15T01:12:41;5.00;99.90
33811;DHT22;20119;48.334;16.206;2023-04-15T01:15:09;5.00;99.90
33811;DHT22;20119;48.334;16.206;2023-04-15T01:17:38;5.00;99.90
33811;DHT22;20119;48.334;16.206;2023-04-15T01:20:08;5.00;99.90
33811;DHT22;20119;48.334;16.206;2023-04-15T01:22:37;5.00;99.90
33811;DHT22;20119;48.334;16.206;2023-04-15T01:25:10;5.00;99.90
33811;DHT22;20119;48.334;16.206;2023-04-15T01:27:40;5.00;99.90
33811;DHT22;20119;48.334;16.206;2023-04-15T01:30:09;5.00;99.90
33811;DHT22;20119;48.334;16.206;2023-04-15T01:32:38;5.00;99.90
33811;DHT22;20119;48.334;16.206;2023-04-15T01:35:06;5.00;99.90
33811;DHT22;20119;48.334;16.206;2023-04-15T01:37:34;5.00;99.90
33811;DHT22;20119;48.334;16.206;2023-04-15T01:40:05;5.00;99.90
33811;DHT22;20119;48.334;16.206;2023-04-15T01:42:34;5.10;99.90
33811;DHT22;20119;48.334;16.206;2023-04-15T01:45:05;5.10;99.90
33811;DHT22;20119;48.334;16.206;2023-04-15T01:47:32;5.10;99.90
33811;DHT22;20119;48.334;16.206;2023-04-15T01:50:00;5.10;99.90
33811;DHT22;20119;48.334;16.206;2023-04-15T01:52:30;5.10;99.90
33811;DHT22;20119;48.334;16.206;2023-04-15T01:54:58;5.10;99.90
33811;DHT22;20119;48.334;16.206;2023-04-15T01:57:27;5.20;99.90
33811;DHT22;20119;48.334;16.206;2023-04-15T01:59:54;5.20;99.90
33811;DHT22;20119;48.334;16.206;2023-04-15T02:02:25;5.10;99.90
33811;DHT22;20119;48.334;16.206;2023-04-15T02:04:51;5.20;99.90
33811;DHT22;20119;48.334;16.206;2023-04-15T02:07:19;5.20;99.90
33811;DHT22;20119;48.334;16.206;2023-04-15T02:09:47;5.20;99.90
33811;DHT22;20119;48.334;16.206;2023-04-15T02:12:15;5.20;99.90
33811;DHT22;20119;48.334;16.206;2023-04-15T02:14:43;5.10;99.90
33811;DHT22;20119;48.334;16.206;2023-04-15T02:17:10;5.20;99.90
33811;DHT22;20119;48.334;16.206;2023-04-15T02:19:39;5.10;99.90
33811;DHT22;20119;48.334;16.206;2023-04-15T02:22:06;5.10;99.90
33811;DHT22;20119;48.334;16.206;2023-04-15T02:24:36;5.10;99.90
33811;DHT22;20119;48.334;16.206;2023-04-15T02:27:03;5.20;99.90
33811;DHT22;20119;48.334;16.206;2023-04-15T02:29:31;5.10;99.90
33811;DHT22;20119;48.334;16.206;2023-04-15T02:32:00;5.20;99.90
33811;DHT22;20119;48.334;16.206;2023-04-15T02:34:29;5.10;99.90
33811;DHT22;20119;48.334;16.206;2023-04-15T02:36:59;5.20;99.90
33811;DHT22;20119;48.334;16.206;2023-04-15T02:39:28;5.10;99.90
33811;DHT22;20119;48.334;16.206;2023-04-15T02:41:56;5.20;99.90
33811;DHT22;20119;48.334;16.206;2023-04-15T02:44:24;5.10;99.90
33811;DHT22;20119;48.334;16.206;2023-04-15T02:46:53;5.10;99.90
33811;DHT22;20119;48.334;16.206;2023-04-15T02:49:21;5.10;99.90
33811;DHT22;20119;48.334;16.206;2023-04-15T02:51:48;5.10;99.90
33811;DHT22;20119;48.334;16.206;2023-04-15T02:54:18;5.00;99.90
33811;DHT22;20119;48.334;16.206;2023-04-15T02:56:45;5.10;99.90
33811;DHT22;20119;48.334;16.206;2023-04-15T02:59:13;5.10;99.90
33811;DHT22;20119;48.334;16.206;2023-04-15T03:01:41;5.10;99.90
33811;DHT22;20119;48.334;16.206;2023-04-15T03:04:09;5.00;99.90
33811;DHT22;20119;48.334;16.206;2023-04-15T03:06:38;4.90;99.90
33811;DHT22;20119;48.334;16.206;2023-04-15T03:09:06;4.90;99.90
33811;DHT22;20119;48.334;16.206;2023-04-15T03:11:38;4.90;99.90
33811;DHT22;20119;48.334;16.206;2023-04-15T03:14:07;4.90;99.90
33811;DHT22;20119;48.334;16.206;2023-04-15T03:16:36;4.80;99.90
33811;DHT22;20119;48.334;16.206;2023-04-15T03:19:03;4.80;99.90
33811;DHT22;20119;48.334;16.206;2023-04-15T03:21:30;4.80;99.90
33811;DHT22;20119;48.334;16.206;2023-04-15T03:23:58;4.80;99.90
33811;DHT22;20119;48.334;16.206;2023-04-15T03:26:27;4.80;99.90
33811;DHT22;20119;48.334;16.206;2023-04-15T03:28:57;4.80;99.90
33811;DHT22;20119;48.334;16.206;2023-04-15T03:31:25;4.80;99.90
33811;DHT22;20119;48.334;16.206;2023-04-15T03:33:53;4.80;99.90
33811;DHT22;20119;48.334;16.206;2023-04-15T03:36:22;4.80;99.90
33811;DHT22;20119;48.334;16.206;2023-04-15T03:38:52;4.80;99.90
33811;DHT22;20119;48.334;16.206;2023-04-15T03:41:20;4.70;99.90
33811;DHT22;20119;48.334;16.206;2023-04-15T03:43:48;4.70;99.90
33811;DHT22;20119;48.334;16.206;2023-04-15T03:46:18;4.80;99.90
33811;DHT22;20119;48.334;16.206;2023-04-15T03:48:46;4.80;99.90
33811;DHT22;20119;48.334;16.206;2023-04-15T03:51:15;4.70;99.90
33811;DHT22;20119;48.334;16.206;2023-04-15T03:53:42;4.70;99.90
33811;DHT22;20119;48.334;16.206;2023-04-15T03:56:11;4.70;99.90
33811;DHT22;20119;48.334;16.206;2023-04-15T03:58:40;4.60;99.90
33811;DHT22;20119;48.334;16.206;2023-04-15T04:01:08;4.60;99.90
33811;DHT22;20119;48.334;16.206;2023-04-15T04:03:38;4.60;99.90
33811;DHT22;20119;48.334;16.206;2023-04-15T04:06:05;4.60;99.90
33811;DHT22;20119;48.334;16.206;2023-04-15T04:08:34;4.60;99.90
33811;DHT22;20119;48.334;16.206;2023-04-15T04:11:03;4.50;99.90
33811;DHT22;20119;48.334;16.206;2023-04-15T04:13:31;4.40;99.90
33811;DHT22;20119;48.334;16.206;2023-04-15T04:16:00;4.40;99.90
33811;DHT22;20119;48.334;16.206;2023-04-15T04:18:29;4.40;99.90
33811;DHT22;20119;48.334;16.206;2023-04-15T04:20:58;4.40;99.90
33811;DHT22;20119;48.334;16.206;2023-04-15T04:23:27;4.40;99.90
33811;DHT22;20119;48.334;16.206;2023-04-15T04:25:54;4.40;99.90
33811;DHT22;20119;48.334;16.206;2023-04-15T04:28:22;4.30;99.90
33811;DHT22;20119;48.334;16.206;2023-04-15T04:30:51;4.40;99.90
33811;DHT22;20119;48.334;16.206;2023-04-15T04:33:19;4.30;99.90
33811;DHT22;20119;48.334;16.206;2023-04-15T04:35:46;4.20;99.90
33811;DHT22;20119;48.334;16.206;2023-04-15T04:38:15;4.30;99.90
33811;DHT22;20119;48.334;16.206;2023-04-15T04:40:42;4.20;99.90
33811;DHT22;20119;48.334;16.206;2023-04-15T04:43:09;4.10;99.90
33811;DHT22;20119;48.334;16.206;2023-04-15T04:45:37;4.10;99.90
33811;DHT22;20119;48.334;16.206;2023-04-15T04:48:05;4.10;99.90
33811;DHT22;20119;48.334;16.206;2023-04-15T04:50:35;4.00;99.90
33811;DHT22;20119;48.334;16.206;2023-04-15T04:53:05;4.10;99.90
33811;DHT22;20119;48.334;16.206;2023-04-15T04:55:34;4.00;99.90
33811;DHT22;20119;48.334;16.206;2023-04-15T04:58:01;4.00;99.90
33811;DHT22;20119;48.334;16.206;2023-04-15T05:00:30;4.00;99.90
33811;DHT22;20119;48.334;16.206;2023-04-15T05:02:58;4.00;99.90
33811;DHT22;20119;48.334;16.206;2023-04-15T05:05:26;4.00;99.90
33811;DHT22;20119;48.334;16.206;2023-04-15T05:07:55;3.90;99.90
33811;DHT22;20119;48.334;16.206;2023-04-15T05:10:24;4.00;99.90
33811;DHT22;20119;48.334;16.206;2023-04-15T05:12:54;4.00;99.90
33811;DHT22;20119;48.334;16.206;2023-04-15T05:15:21;4.00;99.90
33811;DHT22;20119;48.334;16.206;2023-04-15T05:17:48;4.00;99.90
33811;DHT22;20119;48.334;16.206;2023-04-15T05:20:17;4.10;99.90
33811;DHT22;20119;48.334;16.206;2023-04-15T05:22:45;4.10;99.90
33811;DHT22;20119;48.334;16.206;2023-04-15T05:25:13;4.10;99.90
33811;DHT22;20119;48.334;16.206;2023-04-15T05:27:40;4.10;99.90
33811;DHT22;20119;48.334;16.206;2023-04-15T05:30:10;4.10;99.90
33811;DHT22;20119;48.334;16.206;2023-04-15T05:32:39;4.10;99.90
33811;DHT22;20119;48.334;16.206;2023-04-15T05:35:06;4.10;99.90
33811;DHT22;20119;48.334;16.206;2023-04-15T05:37:34;4.10;99.90
33811;DHT22;20119;48.334;16.206;2023-04-15T05:40:03;4.10;99.90
33811;DHT22;20119;48.334;16.206;2023-04-15T05:42:30;4.20;99.90
33811;DHT22;20119;48.334;16.206;2023-04-15T05:44:57;4.20;99.90
33811;DHT22;20119;48.334;16.206;2023-04-15T05:47:27;4.20;99.90
33811;DHT22;20119;48.334;16.206;2023-04-15T05:49:57;4.20;99.90
33811;DHT22;20119;48.334;16.206;2023-04-15T05:52:25;4.20;99.90
33811;DHT22;20119;48.334;16.206;2023-04-15T05:54:52;4.30;99.90
33811;DHT22;20119;48.334;16.206;2023-04-15T05:57:19;4.40;99.90
33811;DHT22;20119;48.334;16.206;2023-04-15T05:59:48;4.40;99.90
33811;DHT22;20119;48.334;16.206;2023-04-15T06:02:16;4.50;99.90
33811;DHT22;20119;48.334;16.206;2023-04-15T06:04:47;4.50;99.90
33811;DHT22;20119;48.334;16.206;2023-04-15T06:07:16;4.50;99.90
33811;DHT22;20119;48.334;16.206;2023-04-15T06:09:43;4.60;99.90
33811;DHT22;20119;48.334;16.206;2023-04-15T06:12:11;4.70;99.90
33811;DHT22;20119;48.334;16.206;2023-04-15T06:14:39;4.70;99.90
33811;DHT22;20119;48.334;16.206;2023-04-15T06:17:09;4.70;99.90
33811;DHT22;20119;48.334;16.206;2023-04-15T06:19:36;4.70;99.90
33811;DHT22;20119;48.334;16.206;2023-04-15T06:22:06;4.80;99.90
33811;DHT22;20119;48.334;16.206;2023-04-15T06:24:33;4.80;99.90
33811;DHT22;20119;48.334;16.206;2023-04-15T06:29:37;4.80;99.90
33811;DHT22;20119;48.334;16.206;2023-04-15T06:32:07;4.80;99.90
33811;DHT22;20119;48.334;16.206;2023-04-15T06:34:34;4.80;99.90
33811;DHT22;20119;48.334;16.206;2023-04-15T06:37:02;5.00;99.90
33811;DHT22;20119;48.334;16.206;2023-04-15T06:39:31;5.00;99.90
33811;DHT22;20119;48.334;16.206;2023-04-15T06:41:58;5.00;99.90
33811;DHT22;20119;48.334;16.206;2023-04-15T06:44:26;5.00;99.90
33811;DHT22;20119;48.334;16.206;2023-04-15T06:46:54;5.10;99.90
33811;DHT22;20119;48.334;16.206;2023-04-15T06:49:22;5.10;99.90
33811;DHT22;20119;48.334;16.206;2023-04-15T06:51:49;5.10;99.90
33811;DHT22;20119;48.334;16.206;2023-04-15T06:54:17;5.20;99.90
33811;DHT22;20119;48.334;16.206;2023-04-15T06:56:45;5.20;99.90
33811;DHT22;20119;48.334;16.206;2023-04-15T06:59:14;5.20;99.90
33811;DHT22;20119;48.334;16.206;2023-04-15T07:01:42;5.30;99.90
33811;DHT22;20119;48.334;16.206;2023-04-15T07:04:17;5.30;99.90
33811;DHT22;20119;48.334;16.206;2023-04-15T07:06:45;5.40;99.90
33811;DHT22;20119;48.334;16.206;2023-04-15T07:09:12;5.40;99.90
33811;DHT22;20119;48.334;16.206;2023-04-15T07:11:40;5.40;99.90
33811;DHT22;20119;48.334;16.206;2023-04-15T07:14:09;5.50;99.90
33811;DHT22;20119;48.334;16.206;2023-04-15T07:16:37;5.50;99.90
33811;DHT22;20119;48.334;16.206;2023-04-15T07:19:04;5.60;99.90
33811;DHT22;20119;48.334;16.206;2023-04-15T07:21:32;5.60;99.90
33811;DHT22;20119;48.334;16.206;2023-04-15T07:23:59;5.80;99.90
33811;DHT22;20119;48.334;16.206;2023-04-15T07:26:27;5.90;99.90
33811;DHT22;20119;48.334;16.206;2023-04-15T07:28:55;6.10;99.90
33811;DHT22;20119;48.334;16.206;2023-04-15T07:31:25;6.20;99.90
33811;DHT22;20119;48.334;16.206;2023-04-15T07:33:52;6.20;99.90
33811;DHT22;20119;48.334;16.206;2023-04-15T07:36:19;6.20;99.90
33811;DHT22;20119;48.334;16.206;2023-04-15T07:38:49;6.30;99.90
33811;DHT22;20119;48.334;16.206;2023-04-15T07:41:24;6.30;99.90
33811;DHT22;20119;48.334;16.206;2023-04-15T07:43:52;6.30;99.90
33811;DHT22;20119;48.334;16.206;2023-04-15T07:46:20;6.40;99.90
33811;DHT22;20119;48.334;16.206;2023-04-15T07:48:50;6.50;99.90
33811;DHT22;20119;48.334;16.206;2023-04-15T07:51:18;6.60;99.90
33811;DHT22;20119;48.334;16.206;2023-04-15T07:53:46;6.60;99.90
33811;DHT22;20119;48.334;16.206;2023-04-15T07:56:15;6.70;99.90
33811;DHT22;20119;48.334;16.206;2023-04-15T07:58:42;6.80;99.90
33811;DHT22;20119;48.334;16.206;2023-04-15T08:01:10;6.90;99.90
33811;DHT22;20119;48.334;16.206;2023-04-15T08:03:38;6.70;99.90
33811;DHT22;20119;48.334;16.206;2023-04-15T08:06:07;6.80;99.90
33811;DHT22;20119;48.334;16.206;2023-04-15T08:08:35;6.90;99.90
33811;DHT22;20119;48.334;16.206;2023-04-15T08:11:03;6.90;99.90
33811;DHT22;20119;48.334;16.206;2023-04-15T08:13:31;7.10;99.90
33811;DHT22;20119;48.334;16.206;2023-04-15T08:16:17;7.30;99.90
33811;DHT22;20119;48.334;16.206;2023-04-15T08:18:45;7.20;99.90
33811;DHT22;20119;48.334;16.206;2023-04-15T08:21:14;7.40;99.90
33811;DHT22;20119;48.334;16.206;2023-04-15T08:23:42;7.30;99.90
33811;DHT22;20119;48.334;16.206;2023-04-15T08:26:10;7.30;99.90
33811;DHT22;20119;48.334;16.206;2023-04-15T08:28:41;7.20;99.90
33811;DHT22;20119;48.334;16.206;2023-04-15T08:31:08;7.10;99.90
33811;DHT22;20119;48.334;16.206;2023-04-15T08:33:36;7.20;99.90
33811;DHT22;20119;48.334;16.206;2023-04-15T08:36:04;7.30;99.90
33811;DHT22;20119;48.334;16.206;2023-04-15T08:38:34;7.40;99.90
33811;DHT22;20119;48.334;16.206;2023-04-15T08:41:06;7.60;99.90
33811;DHT22;20119;48.334;16.206;2023-04-15T08:43:34;7.50;99.90
33811;DHT22;20119;48.334;16.206;2023-04-15T08:46:06;7.50;99.90
33811;DHT22;20119;48.334;16.206;2023-04-15T08:48:37;7.90;99.90
33811;DHT22;20119;48.334;16.206;2023-04-15T08:51:06;8.20;99.90
33811;DHT22;20119;48.334;16.206;2023-04-15T08:53:36;8.20;99.90
33811;DHT22;20119;48.334;16.206;2023-04-15T08:56:06;8.30;99.90
33811;DHT22;20119;48.334;16.206;2023-04-15T08:58:35;8.40;99.90
33811;DHT22;20119;48.334;16.206;2023-04-15T09:01:02;8.40;99.90
33811;DHT22;20119;48.334;16.206;2023-04-15T09:03:29;8.40;99.90
33811;DHT22;20119;48.334;16.206;2023-04-15T09:05:58;8.40;99.90
33811;DHT22;20119;48.334;16.206;2023-04-15T09:13:34;8.60;99.90
33811;DHT22;20119;48.334;16.206;2023-04-15T09:16:02;8.50;99.90
33811;DHT22;20119;48.334;16.206;2023-04-15T09:18:35;8.20;99.90
33811;DHT22;20119;48.334;16.206;2023-04-15T09:21:04;8.20;99.90
33811;DHT22;20119;48.334;16.206;2023-04-15T09:29:08;8.30;99.90
33811;DHT22;20119;48.334;16.206;2023-04-15T09:31:38;8.30;99.90
33811;DHT22;20119;48.334;16.206;2023-04-15T09:34:05;8.30;99.90
33811;DHT22;20119;48.334;16.206;2023-04-15T09:36:51;8.30;99.90
33811;DHT22;20119;48.334;16.206;2023-04-15T09:39:19;8.20;99.90
33811;DHT22;20119;48.334;16.206;2023-04-15T09:41:47;8.30;99.90
33811;DHT22;20119;48.334;16.206;2023-04-15T09:44:32;8.10;99.90
33811;DHT22;20119;48.334;16.206;2023-04-15T09:47:00;7.90;99.90
33811;DHT22;20119;48.334;16.206;2023-04-15T09:49:27;8.00;99.90
33811;DHT22;20119;48.334;16.206;2023-04-15T09:54:37;7.80;99.90
33811;DHT22;20119;48.334;16.206;2023-04-15T09:57:04;7.80;99.90
33811;DHT22;20119;48.334;16.206;2023-04-15T09:59:33;7.80;99.90
33811;DHT22;20119;48.334;16.206;2023-04-15T10:02:03;7.60;99.90
33811;DHT22;20119;48.334;16.206;2023-04-15T10:04:35;7.60;99.90
33811;DHT22;20119;48.334;16.206;2023-04-15T10:12:15;7.60;99.90
33811;DHT22;20119;48.334;16.206;2023-04-15T10:22:31;7.80;99.90
33811;DHT22;20119;48.334;16.206;2023-04-15T10:24:58;7.80;99.90
33811;DHT22;20119;48.334;16.206;2023-04-15T10:27:30;7.90;99.90
33811;DHT22;20119;48.334;16.206;2023-04-15T10:29:59;7.90;99.90
33811;DHT22;20119;48.334;16.206;2023-04-15T10:32:28;7.70;99.90
33811;DHT22;20119;48.334;16.206;2023-04-15T10:34:56;7.80;99.90
33811;DHT22;20119;48.334;16.206;2023-04-15T10:37:35;7.80;99.90
33811;DHT22;20119;48.334;16.206;2023-04-15T10:40:28;7.80;99.90
33811;DHT22;20119;48.334;16.206;2023-04-15T10:45:35;7.80;99.90
33811;DHT22;20119;48.334;16.206;2023-04-15T10:48:04;7.90;99.90
33811;DHT22;20119;48.334;16.206;2023-04-15T10:53:10;8.00;99.90
33811;DHT22;20119;48.334;16.206;2023-04-15T10:55:37;8.20;99.90
33811;DHT22;20119;48.334;16.206;2023-04-15T10:58:05;8.30;99.90
33811;DHT22;20119;48.334;16.206;2023-04-15T11:00:32;8.40;99.90
33811;DHT22;20119;48.334;16.206;2023-04-15T11:03:05;8.50;99.90
33811;DHT22;20119;48.334;16.206;2023-04-15T11:05:51;8.40;99.90
33811;DHT22;20119;48.334;16.206;2023-04-15T11:08:21;8.30;99.90
33811;DHT22;20119;48.334;16.206;2023-04-15T11:11:09;8.10;99.90
33811;DHT22;20119;48.334;16.206;2023-04-15T11:13:47;8.20;99.90
33811;DHT22;20119;48.334;16.206;2023-04-15T11:16:15;8.10;99.90
33811;DHT22;20119;48.334;16.206;2023-04-15T11:21:38;8.10;99.90
33811;DHT22;20119;48.334;16.206;2023-04-15T11:24:05;8.00;99.90
33811;DHT22;20119;48.334;16.206;2023-04-15T11:26:34;8.00;99.90
33811;DHT22;20119;48.334;16.206;2023-04-15T11:29:02;7.90;99.90
33811;DHT22;20119;48.334;16.206;2023-04-15T11:31:30;7.90;99.90
33811;DHT22;20119;48.334;16.206;2023-04-15T11:33:59;7.70;99.90
33811;DHT22;20119;48.334;16.206;2023-04-15T11:36:27;7.80;99.90
33811;DHT22;20119;48.334;16.206;2023-04-15T11:38:57;8.00;99.90
33811;DHT22;20119;48.334;16.206;2023-04-15T11:41:24;7.80;99.90
33811;DHT22;20119;48.334;16.206;2023-04-15T11:43:53;7.70;99.90
33811;DHT22;20119;48.334;16.206;2023-04-15T11:46:28;7.80;99.90
33811;DHT22;20119;48.334;16.206;2023-04-15T11:48:57;8.10;99.90
33811;DHT22;20119;48.334;16.206;2023-04-15T11:51:25;8.40;99.90
33811;DHT22;20119;48.334;16.206;2023-04-15T11:53:54;8.30;99.90
33811;DHT22;20119;48.334;16.206;2023-04-15T11:56:25;8.20;99.90
33811;DHT22;20119;48.334;16.206;2023-04-15T11:58:57;8.30;99.90
33811;DHT22;20119;48.334;16.206;2023-04-15T12:01:31;8.10;99.90
33811;DHT22;20119;48.334;16.206;2023-04-15T12:04:00;8.20;99.90
33811;DHT22;20119;48.334;16.206;2023-04-15T12:06:32;8.10;99.90
33811;DHT22;20119;48.334;16.206;2023-04-15T12:09:07;8.30;99.90
33811;DHT22;20119;48.334;16.206;2023-04-15T12:11:36;8.60;99.90
33811;DHT22;20119;48.334;16.206;2023-04-15T12:14:14;8.70;99.90
33811;DHT22;20119;48.334;16.206;2023-04-15T12:16:43;8.90;99.90
33811;DHT22;20119;48.334;16.206;2023-04-15T12:19:12;8.70;99.90
33811;DHT22;20119;48.334;16.206;2023-04-15T12:21:43;8.60;99.90
33811;DHT22;20119;48.334;16.206;2023-04-15T12:24:11;8.60;99.90
33811;DHT22;20119;48.334;16.206;2023-04-15T12:26:43;8.60;99.90
33811;DHT22;20119;48.334;16.206;2023-04-15T12:29:14;8.60;99.90
33811;DHT22;20119;48.334;16.206;2023-04-15T12:31:53;8.40;99.90
33811;DHT22;20119;48.334;16.206;2023-04-15T12:34:31;8.40;99.90
33811;DHT22;20119;48.334;16.206;2023-04-15T12:37:00;8.50;99.90
33811;DHT22;20119;48.334;16.206;2023-04-15T12:39:29;8.20;99.90
33811;DHT22;20119;48.334;16.206;2023-04-15T12:41:57;8.00;99.90
33811;DHT22;20119;48.334;16.206;2023-04-15T12:44:28;8.00;99.90
33811;DHT22;20119;48.334;16.206;2023-04-15T12:46:56;7.90;99.90
33811;DHT22;20119;48.334;16.206;2023-04-15T12:49:25;8.00;99.90
33811;DHT22;20119;48.334;16.206;2023-04-15T12:51:56;8.00;99.90
33811;DHT22;20119;48.334;16.206;2023-04-15T12:54:26;8.00;99.90
33811;DHT22;20119;48.334;16.206;2023-04-15T12:56:54;8.10;99.90
33811;DHT22;20119;48.334;16.206;2023-04-15T12:59:21;7.90;99.90
33811;DHT22;20119;48.334;16.206;2023-04-15T13:01:51;7.90;99.90
33811;DHT22;20119;48.334;16.206;2023-04-15T13:04:19;8.00;99.90
33811;DHT22;20119;48.334;16.206;2023-04-15T13:06:48;8.00;99.90
33811;DHT22;20119;48.334;16.206;2023-04-15T13:09:16;8.00;99.90
33811;DHT22;20119;48.334;16.206;2023-04-15T13:11:45;7.90;99.90
33811;DHT22;20119;48.334;16.206;2023-04-15T13:14:12;7.90;99.90
33811;DHT22;20119;48.334;16.206;2023-04-15T13:22:05;8.20;99.90
33811;DHT22;20119;48.334;16.206;2023-04-15T13:24:34;8.20;99.90
33811;DHT22;20119;48.334;16.206;2023-04-15T13:27:08;8.40;99.90
33811;DHT22;20119;48.334;16.206;2023-04-15T13:29:35;8.60;99.90
33811;DHT22;20119;48.334;16.206;2023-04-15T13:32:04;8.50;99.90
33811;DHT22;20119;48.334;16.206;2023-04-15T13:34:32;8.50;99.90
33811;DHT22;20119;48.334;16.206;2023-04-15T13:37:07;8.60;99.90
33811;DHT22;20119;48.334;16.206;2023-04-15T13:39:35;8.50;99.90
33811;DHT22;20119;48.334;16.206;2023-04-15T13:42:02;8.40;99.90
33811;DHT22;20119;48.334;16.206;2023-04-15T13:44:32;8.60;99.90
33811;DHT22;20119;48.334;16.206;2023-04-15T13:47:00;8.90;99.90
33811;DHT22;20119;48.334;16.206;2023-04-15T13:49:27;9.10;99.90
33811;DHT22;20119;48.334;16.206;2023-04-15T13:51:55;9.30;99.90
33811;DHT22;20119;48.334;16.206;2023-04-15T13:54:25;9.00;99.90
33811;DHT22;20119;48.334;16.206;2023-04-15T13:56:53;9.00;99.90
33811;DHT22;20119;48.334;16.206;2023-04-15T14:01:57;9.10;99.90
33811;DHT22;20119;48.334;16.206;2023-04-15T14:04:24;9.10;99.90
33811;DHT22;20119;48.334;16.206;2023-04-15T14:06:52;9.00;99.90
33811;DHT22;20119;48.334;16.206;2023-04-15T14:09:20;8.90;99.90
33811;DHT22;20119;48.334;16.206;2023-04-15T14:11:50;9.00;99.90
33811;DHT22;20119;48.334;16.206;2023-04-15T14:14:18;9.00;99.90
33811;DHT22;20119;48.334;16.206;2023-04-15T14:19:38;9.10;99.90
33811;DHT22;20119;48.334;16.206;2023-04-15T14:24:39;9.60;99.90
33811;DHT22;20119;48.334;16.206;2023-04-15T14:27:07;9.60;99.90
33811;DHT22;20119;48.334;16.206;2023-04-15T14:29:37;9.80;99.90
33811;DHT22;20119;48.334;16.206;2023-04-15T14:32:05;9.80;99.90
33811;DHT22;20119;48.334;16.206;2023-04-15T14:34:32;9.70;99.90
33811;DHT22;20119;48.334;16.206;2023-04-15T14:37:00;9.70;99.90
33811;DHT22;20119;48.334;16.206;2023-04-15T14:39:28;9.50;99.90
33811;DHT22;20119;48.334;16.206;2023-04-15T14:41:56;9.80;99.90
33811;DHT22;20119;48.334;16.206;2023-04-15T14:44:25;10.10;99.90
33811;DHT22;20119;48.334;16.206;2023-04-15T14:54:33;10.00;99.90
33811;DHT22;20119;48.334;16.206;2023-04-15T14:57:01;9.70;99.90
33811;DHT22;20119;48.334;16.206;2023-04-15T14:59:36;9.80;99.90
33811;DHT22;20119;48.334;16.206;2023-04-15T15:02:03;9.80;99.90
33811;DHT22;20119;48.334;16.206;2023-04-15T15:04:31;9.70;99.90
33811;DHT22;20119;48.334;16.206;2023-04-15T15:07:00;9.90;99.90
33811;DHT22;20119;48.334;16.206;2023-04-15T15:09:28;9.80;99.90
33811;DHT22;20119;48.334;16.206;2023-04-15T15:11:57;9.70;99.90
33811;DHT22;20119;48.334;16.206;2023-04-15T15:14:24;9.70;99.90
33811;DHT22;20119;48.334;16.206;2023-04-15T15:24:39;9.70;99.90
33811;DHT22;20119;48.334;16.206;2023-04-15T15:27:07;9.80;99.90
33811;DHT22;20119;48.334;16.206;2023-04-15T15:29:37;10.00;99.90
33811;DHT22;20119;48.334;16.206;2023-04-15T15:32:04;10.20;99.90
33811;DHT22;20119;48.334;16.206;2023-04-15T15:34:34;10.30;99.90
33811;DHT22;20119;48.334;16.206;2023-04-15T15:37:04;10.30;99.90
33811;DHT22;20119;48.334;16.206;2023-04-15T15:39:33;10.30;99.90
33811;DHT22;20119;48.334;16.206;2023-04-15T15:42:03;10.20;99.90
33811;DHT22;20119;48.334;16.206;2023-04-15T15:44:31;10.10;99.90
33811;DHT22;20119;48.334;16.206;2023-04-15T15:47:01;10.20;99.90
33811;DHT22;20119;48.334;16.206;2023-04-15T15:49:29;9.90;99.90
33811;DHT22;20119;48.334;16.206;2023-04-15T15:51:56;9.70;99.90
33811;DHT22;20119;48.334;16.206;2023-04-15T15:54:24;9.70;99.90
33811;DHT22;20119;48.334;16.206;2023-04-15T15:56:51;9.60;99.90
33811;DHT22;20119;48.334;16.206;2023-04-15T15:59:20;9.30;99.90
33811;DHT22;20119;48.334;16.206;2023-04-15T16:01:48;9.30;99.90
33811;DHT22;20119;48.334;16.206;2023-04-15T16:04:17;9.10;99.90
33811;DHT22;20119;48.334;16.206;2023-04-15T16:06:44;9.20;99.90
33811;DHT22;20119;48.334;16.206;2023-04-15T16:09:12;9.00;99.90
33811;DHT22;20119;48.334;16.206;2023-04-15T16:11:39;9.00;99.90
33811;DHT22;20119;48.334;16.206;2023-04-15T16:14:07;8.70;99.90
33811;DHT22;20119;48.334;16.206;2023-04-15T16:16:37;8.70;99.90
33811;DHT22;20119;48.334;16.206;2023-04-15T16:19:04;8.70;99.90
33811;DHT22;20119;48.334;16.206;2023-04-15T16:21:32;8.70;99.90
33811;DHT22;20119;48.334;16.206;2023-04-15T16:24:01;8.60;99.90
33811;DHT22;20119;48.334;16.206;2023-04-15T16:26:28;8.50;99.90
33811;DHT22;20119;48.334;16.206;2023-04-15T16:28:55;8.50;99.90
33811;DHT22;20119;48.334;16.206;2023-04-15T16:31:22;8.40;99.90
33811;DHT22;20119;48.334;16.206;2023-04-15T16:33:51;8.30;99.90
33811;DHT22;20119;48.334;16.206;2023-04-15T16:36:19;8.10;99.90
33811;DHT22;20119;48.334;16.206;2023-04-15T16:38:46;8.20;99.90
33811;DHT22;20119;48.334;16.206;2023-04-15T16:41:14;8.00;99.90
33811;DHT22;20119;48.334;16.206;2023-04-15T16:43:42;8.00;99.90
33811;DHT22;20119;48.334;16.206;2023-04-15T16:46:11;8.00;99.90